createdAt,value
2023-04-02T00:01:22.769Z,10.05
2023-04-02T00:03:53.718Z,7.40
2023-04-02T00:06:30.316Z,9.63
2023-04-02T00:09:04.643Z,8.00
2023-04-02T00:11:35.809Z,7.57
2023-04-02T00:14:04.155Z,10.32
2023-04-02T00:16:31.328Z,13.65
2023-04-02T00:19:06.436Z,7.17
2023-04-02T00:21:37.704Z,8.82
2023-04-02T00:24:14.549Z,8.13
2023-04-02T00:26:46.367Z,10.30
2023-04-02T00:29:14.506Z,10.70
2023-04-02T00:31:50.537Z,5.57
2023-04-02T00:34:33.678Z,8.18
2023-04-02T00:37:00.567Z,8.57
2023-04-02T00:39:30.574Z,8.40
2023-04-02T00:42:04.982Z,8.55
2023-04-02T00:44:34.166Z,7.07
2023-04-02T00:47:26.818Z,5.13
2023-04-02T00:53:30.980Z,9.80
2023-04-02T00:56:03.138Z,10.52
2023-04-02T00:58:35.589Z,10.13
2023-04-02T01:01:02.227Z,7.82
2023-04-02T01:03:35.393Z,9.57
2023-04-02T01:06:10.817Z,12.82
2023-04-02T01:09:02.533Z,11.38
2023-04-02T01:11:57.511Z,7.83
2023-04-02T01:14:42.197Z,9.00
2023-04-02T01:17:15.528Z,15.80
2023-04-02T01:20:12.606Z,8.02
2023-04-02T01:23:05.729Z,6.57
2023-04-02T01:25:38.356Z,7.13
2023-04-02T01:28:19.557Z,9.25
2023-04-02T01:30:52.596Z,8.20
2023-04-02T01:33:24.497Z,4.47
2023-04-02T01:35:58.621Z,5.57
2023-04-02T01:38:34.447Z,11.60
2023-04-02T01:41:11.952Z,6.75
2023-04-02T01:43:48.044Z,7.15
2023-04-02T01:46:30.498Z,7.28
2023-04-02T01:48:59.842Z,6.78
2023-04-02T01:51:34.809Z,9.43
2023-04-02T01:54:04.014Z,8.35
2023-04-02T01:56:30.837Z,5.90
2023-04-02T01:58:58.910Z,6.82
2023-04-02T02:01:36.655Z,5.25
2023-04-02T02:04:03.250Z,7.17
2023-04-02T02:06:29.950Z,5.35
2023-04-02T02:09:03.791Z,7.80
2023-04-02T02:11:32.523Z,8.18
2023-04-02T02:14:12.028Z,7.13
2023-04-02T02:16:42.036Z,9.80
2023-04-02T02:19:22.178Z,11.05
2023-04-02T02:21:55.015Z,6.07
2023-04-02T02:24:29.187Z,7.25
2023-04-02T02:27:21.344Z,10.27
2023-04-02T02:29:53.096Z,8.57
2023-04-02T02:32:22.780Z,12.02
2023-04-02T02:34:56.867Z,11.88
2023-04-02T02:37:28.205Z,12.25
2023-04-02T02:39:58.423Z,8.55
2023-04-02T02:42:42.106Z,11.07
2023-04-02T02:45:19.738Z,10.55
2023-04-02T02:47:47.986Z,10.68
2023-04-02T02:50:22.139Z,9.50
2023-04-02T02:52:55.024Z,8.15
2023-04-02T02:55:37.714Z,3.67
2023-04-02T02:58:15.983Z,7.65
2023-04-02T03:00:43.277Z,11.10
2023-04-02T03:03:14.774Z,10.93
2023-04-02T03:05:41.827Z,5.57
2023-04-02T03:08:18.334Z,10.03
2023-04-02T03:11:01.126Z,5.32
2023-04-02T03:13:35.794Z,5.78
2023-04-02T03:16:08.275Z,8.55
2023-04-02T03:18:50.398Z,9.52
2023-04-02T03:21:51.079Z,6.30
2023-04-02T03:24:20.453Z,11.05
2023-04-02T03:26:56.157Z,4.60
2023-04-02T03:29:27.059Z,8.98
2023-04-02T03:31:58.081Z,4.18
2023-04-02T03:34:29.666Z,9.17
2023-04-02T03:37:08.263Z,8.20
2023-04-02T03:39:42.834Z,4.30
2023-04-02T03:42:21.270Z,3.97
2023-04-02T03:44:57.286Z,10.68
2023-04-02T03:47:28.241Z,7.67
2023-04-02T03:50:11.662Z,6.93
2023-04-02T03:52:38.526Z,5.80
2023-04-02T03:55:19.322Z,6.43
2023-04-02T03:58:07.561Z,3.95
2023-04-02T04:00:42.398Z,7.60
2023-04-02T04:03:16.293Z,5.78
2023-04-02T04:05:52.111Z,3.80
2023-04-02T04:08:28.578Z,7.05
2023-04-02T04:10:58.941Z,4.93
2023-04-02T04:13:35.545Z,5.33
2023-04-02T04:16:11.622Z,5.85
2023-04-02T04:18:47.633Z,5.05
2023-04-02T04:21:37.045Z,7.68
2023-04-02T04:24:16.149Z,4.07
2023-04-02T04:27:09.648Z,6.10
2023-04-02T04:29:58.178Z,9.77
2023-04-02T04:32:39.094Z,8.10
2023-04-02T04:35:23.289Z,4.15
2023-04-02T04:40:33.451Z,9.13
2023-04-02T04:43:05.675Z,3.28
2023-04-02T04:45:47.586Z,5.10
2023-04-02T04:48:21.237Z,3.15
2023-04-02T04:50:56.009Z,7.07
2023-04-02T04:53:25.015Z,4.57
2023-04-02T04:56:06.001Z,7.80
2023-04-02T04:58:52.941Z,6.13
2023-04-02T05:01:27.118Z,4.72
2023-04-02T05:04:02.944Z,3.90
2023-04-02T05:06:37.580Z,7.90
2023-04-02T05:09:33.216Z,4.00
2023-04-02T05:12:12.423Z,3.35
2023-04-02T05:14:54.176Z,4.05
2023-04-02T05:17:33.473Z,5.75
2023-04-02T05:20:16.255Z,3.50
2023-04-02T05:22:49.216Z,2.65
2023-04-02T05:25:19.886Z,2.47
2023-04-02T05:28:12.799Z,2.88
2023-04-02T05:30:49.635Z,2.08
2023-04-02T05:33:30.744Z,1.33
2023-04-02T05:36:11.672Z,3.67
2023-04-02T05:38:44.106Z,3.58
2023-04-02T05:41:36.851Z,1.83
2023-04-02T05:44:16.383Z,5.18
2023-04-02T05:46:50.924Z,2.53
2023-04-02T05:49:45.702Z,4.97
2023-04-02T05:52:19.904Z,4.82
2023-04-02T05:54:52.136Z,3.35
2023-04-02T05:57:35.816Z,3.60
2023-04-02T06:00:18.842Z,2.00
2023-04-02T06:02:53.709Z,4.57
2023-04-02T06:05:28.139Z,2.92
2023-04-02T06:08:06.718Z,2.65
2023-04-02T06:10:56.041Z,4.78
2023-04-02T06:13:22.945Z,2.13
2023-04-02T06:15:49.794Z,3.10
2023-04-02T06:18:20.771Z,8.35
2023-04-02T06:20:47.477Z,3.85
2023-04-02T06:23:38.577Z,2.78
2023-04-02T06:26:12.928Z,4.97
2023-04-02T06:28:58.339Z,3.92
2023-04-02T06:31:44.709Z,3.60
2023-04-02T06:34:17.180Z,3.35
2023-04-02T06:36:45.377Z,2.85
2023-04-02T06:39:20.061Z,2.40
2023-04-02T06:41:46.725Z,3.25
2023-04-02T06:44:19.442Z,2.28
2023-04-02T06:46:52.796Z,3.63
2023-04-02T06:49:31.301Z,4.38
2023-04-02T06:52:01.009Z,2.03
2023-04-02T06:54:27.592Z,2.38
2023-04-02T06:56:56.354Z,2.90
2023-04-02T06:59:23.306Z,2.10
2023-04-02T07:02:01.239Z,4.28
2023-04-02T07:04:27.777Z,4.37
2023-04-02T07:06:54.451Z,3.78
2023-04-02T07:09:21.077Z,4.68
2023-04-02T07:11:47.476Z,5.43
2023-04-02T07:14:14.187Z,4.00
2023-04-02T07:16:42.532Z,6.03
2023-04-02T07:19:20.050Z,8.15
2023-04-02T07:21:46.723Z,2.08
2023-04-02T07:24:13.287Z,2.85
2023-04-02T07:26:39.806Z,2.63
2023-04-02T07:29:15.904Z,2.33
2023-04-02T07:31:43.014Z,2.70
2023-04-02T07:34:10.324Z,3.47
2023-04-02T07:36:36.884Z,5.65
2023-04-02T07:39:04.194Z,6.55
2023-04-02T07:41:30.636Z,2.40
2023-04-02T07:43:57.106Z,4.85
2023-04-02T07:46:24.519Z,1.77
2023-04-02T07:48:51.016Z,3.67
2023-04-02T07:51:23.472Z,2.45
2023-04-02T07:53:51.148Z,5.43
2023-04-02T07:56:19.798Z,4.18
2023-04-02T07:58:47.038Z,1.88
2023-04-02T08:01:27.816Z,2.95
2023-04-02T08:03:56.560Z,2.97
2023-04-02T08:06:24.340Z,2.73
2023-04-02T08:08:50.914Z,4.30
2023-04-02T08:11:17.904Z,3.08
2023-04-02T08:13:44.953Z,1.77
2023-04-02T08:16:11.678Z,2.83
2023-04-02T08:18:38.660Z,3.80
2023-04-02T08:21:09.659Z,2.70
2023-04-02T08:23:37.291Z,3.33
2023-04-02T08:26:04.862Z,1.80
2023-04-02T08:28:31.420Z,4.78
2023-04-02T08:30:57.890Z,4.67
2023-04-02T08:33:24.399Z,5.95
2023-04-02T08:35:51.118Z,2.15
2023-04-02T08:38:19.624Z,1.70
2023-04-02T08:40:50.419Z,3.67
2023-04-02T08:43:28.681Z,3.77
2023-04-02T08:46:00.677Z,4.05
2023-04-02T08:48:27.910Z,7.57
2023-04-02T08:50:54.682Z,4.47
2023-04-02T08:53:24.482Z,1.92
2023-04-02T08:55:55.706Z,3.10
2023-04-02T08:58:41.461Z,2.33
2023-04-02T09:01:19.828Z,1.60
2023-04-02T09:03:49.638Z,1.33
2023-04-02T09:06:19.216Z,3.80
2023-04-02T09:08:48.698Z,2.23
2023-04-02T09:11:21.545Z,4.68
2023-04-02T09:13:54.469Z,1.30
2023-04-02T09:16:33.228Z,1.67
2023-04-02T09:19:01.082Z,1.58
2023-04-02T09:21:36.973Z,2.97
2023-04-02T09:24:05.327Z,2.22
2023-04-02T09:26:33.295Z,1.35
2023-04-02T09:29:15.870Z,1.98
2023-04-02T09:32:18.315Z,1.70
2023-04-02T09:34:44.735Z,2.43
2023-04-02T09:37:25.751Z,1.90
2023-04-02T09:39:53.442Z,4.70
2023-04-02T09:42:30.754Z,2.13
2023-04-02T09:45:21.400Z,2.50
2023-04-02T09:47:48.687Z,6.17
2023-04-02T09:50:15.414Z,6.80
2023-04-02T09:52:41.956Z,5.95
2023-04-02T09:55:14.502Z,6.25
2023-04-02T09:57:41.415Z,4.15
2023-04-02T10:00:29.861Z,4.77
2023-04-02T10:03:26.036Z,6.43
2023-04-02T10:06:04.196Z,1.83
2023-04-02T10:08:31.921Z,2.90
2023-04-02T10:11:01.804Z,2.55
2023-04-02T10:13:43.308Z,1.97
2023-04-02T10:16:16.434Z,1.35
2023-04-02T10:18:54.117Z,2.00
2023-04-02T10:21:28.282Z,2.03
2023-04-02T10:23:55.659Z,1.20
2023-04-02T10:26:55.478Z,2.87
2023-04-02T10:29:24.792Z,2.70
2023-04-02T10:32:09.419Z,6.45
2023-04-02T10:34:58.221Z,3.83
2023-04-02T10:37:59.280Z,3.65
2023-04-02T10:40:35.671Z,1.30
2023-04-02T10:43:12.259Z,2.13
2023-04-02T10:45:47.863Z,2.17
2023-04-02T10:48:41.609Z,2.17
2023-04-02T10:51:43.114Z,2.15
2023-04-02T10:54:24.711Z,4.00
2023-04-02T10:56:53.310Z,3.33
2023-04-02T10:59:26.123Z,1.20
2023-04-02T11:01:56.767Z,4.95
2023-04-02T11:04:36.390Z,3.17
2023-04-02T11:07:14.481Z,1.83
2023-04-02T11:09:45.996Z,4.03
2023-04-02T11:12:23.777Z,3.03
2023-04-02T11:14:52.128Z,2.00
2023-04-02T11:17:19.243Z,2.70
2023-04-02T11:19:46.030Z,1.23
2023-04-02T11:22:23.048Z,2.13
2023-04-02T11:24:55.217Z,1.75
2023-04-02T11:27:27.837Z,7.93
2023-04-02T11:30:03.927Z,4.32
2023-04-02T11:32:39.060Z,4.17
2023-04-02T11:35:33.339Z,2.25
2023-04-02T11:38:12.274Z,3.30
2023-04-02T11:40:49.705Z,4.50
2023-04-02T11:43:34.419Z,0.98
2023-04-02T11:46:23.535Z,3.60
2023-04-02T11:48:55.082Z,2.22
2023-04-02T11:51:27.869Z,4.65
2023-04-02T11:53:55.000Z,1.50
2023-04-02T11:56:35.764Z,4.28
2023-04-02T11:59:27.308Z,2.57
2023-04-02T12:02:30.318Z,3.58
2023-04-02T12:05:23.674Z,2.55
2023-04-02T12:08:08.082Z,2.53
2023-04-02T12:10:54.217Z,2.90
2023-04-02T12:13:41.584Z,1.77
2023-04-02T12:16:13.035Z,1.83
2023-04-02T12:18:46.722Z,2.10
2023-04-02T12:21:22.612Z,1.92
2023-04-02T12:23:52.533Z,1.38
2023-04-02T12:26:37.505Z,2.17
2023-04-02T12:29:26.531Z,1.05
2023-04-02T12:31:58.673Z,2.00
2023-04-02T12:34:27.754Z,1.02
2023-04-02T12:36:59.834Z,2.30
2023-04-02T12:39:28.100Z,3.30
2023-04-02T12:41:55.879Z,2.97
2023-04-02T12:44:27.601Z,1.15
2023-04-02T12:46:54.776Z,3.05
2023-04-02T12:49:41.352Z,1.15
2023-04-02T12:52:11.545Z,5.63
2023-04-02T12:54:59.102Z,1.40
2023-04-02T12:57:25.807Z,1.67
2023-04-02T12:59:54.167Z,2.03
2023-04-02T13:02:25.694Z,3.42
2023-04-02T13:04:55.007Z,2.90
2023-04-02T13:07:25.743Z,1.38
2023-04-02T13:09:58.643Z,5.00
2023-04-02T13:12:39.245Z,1.50
2023-04-02T13:15:22.139Z,2.00
2023-04-02T13:18:07.036Z,3.07
2023-04-02T13:20:39.091Z,4.20
2023-04-02T13:23:45.852Z,1.42
2023-04-02T13:26:21.963Z,2.63
2023-04-02T13:29:23.975Z,2.17
2023-04-02T13:31:52.187Z,1.10
2023-04-02T13:34:18.800Z,2.05
2023-04-02T13:36:45.683Z,1.92
2023-04-02T13:39:12.469Z,3.10
2023-04-02T13:41:44.500Z,1.00
2023-04-02T13:44:25.899Z,3.13
2023-04-02T13:46:54.050Z,8.93
2023-04-02T13:49:21.966Z,2.35
2023-04-02T13:52:10.006Z,5.82
2023-04-02T13:54:45.497Z,7.40
2023-04-02T13:57:12.335Z,1.53
2023-04-02T13:59:38.921Z,2.33
2023-04-02T14:02:17.043Z,3.30
2023-04-02T14:04:52.411Z,1.40
2023-04-02T14:07:29.071Z,1.58
2023-04-02T14:10:01.552Z,1.23
2023-04-02T14:12:46.742Z,3.20
2023-04-02T14:15:43.619Z,4.32
2023-04-02T14:18:48.308Z,3.75
2023-04-02T14:21:33.126Z,2.40
2023-04-02T14:24:06.030Z,3.73
2023-04-02T14:26:43.289Z,2.40
2023-04-02T14:29:16.015Z,5.13
2023-04-02T14:32:30.419Z,1.25
2023-04-02T14:35:16.610Z,1.95
2023-04-02T14:37:52.644Z,7.03
2023-04-02T14:40:22.425Z,2.80
2023-04-02T14:43:07.015Z,1.50
2023-04-02T14:45:54.963Z,2.17
2023-04-02T14:48:35.970Z,1.48
2023-04-02T14:51:12.503Z,1.70
2023-04-02T14:53:49.773Z,2.03
2023-04-02T14:56:19.635Z,1.80
2023-04-02T14:58:51.820Z,4.13
2023-04-02T15:01:34.238Z,1.95
2023-04-02T15:04:04.588Z,2.20
2023-04-02T15:06:36.782Z,2.50
2023-04-02T15:09:19.480Z,4.53
2023-04-02T15:11:52.987Z,2.95
2023-04-02T15:14:23.702Z,4.30
2023-04-02T15:16:50.353Z,0.83
2023-04-02T15:19:18.091Z,1.85
2023-04-02T15:22:01.110Z,2.85
2023-04-02T15:24:34.050Z,4.75
2023-04-02T15:27:27.384Z,1.42
2023-04-02T15:30:07.440Z,0.70
2023-04-02T15:32:34.019Z,1.48
2023-04-02T15:35:32.349Z,0.90
2023-04-02T15:38:07.613Z,2.10
2023-04-02T15:41:08.526Z,0.90
2023-04-02T15:44:02.020Z,4.03
2023-04-02T15:46:53.263Z,1.38
2023-04-02T15:50:01.848Z,1.60
2023-04-02T15:52:34.274Z,2.15
2023-04-02T15:55:29.012Z,3.03
2023-04-02T15:58:28.678Z,2.00
2023-04-02T16:01:08.455Z,1.88
2023-04-02T16:03:49.837Z,1.50
2023-04-02T16:06:32.350Z,2.25
2023-04-02T16:09:14.049Z,2.15
2023-04-02T16:11:43.160Z,2.20
2023-04-02T16:14:42.295Z,2.03
2023-04-02T16:17:24.906Z,3.00
2023-04-02T16:20:14.903Z,8.75
2023-04-02T16:22:59.324Z,2.55
2023-04-02T16:25:31.993Z,2.27
2023-04-02T16:28:20.084Z,2.22
2023-04-02T16:30:56.538Z,1.92
2023-04-02T16:33:31.114Z,1.40
2023-04-02T16:36:11.525Z,3.15
2023-04-02T16:38:59.253Z,1.40
2023-04-02T16:41:44.979Z,3.03
2023-04-02T16:44:35.796Z,1.98
2023-04-02T16:47:11.218Z,2.67
2023-04-02T16:49:55.837Z,0.95
2023-04-02T16:52:41.213Z,0.80
2023-04-02T16:55:46.479Z,1.38
2023-04-02T16:58:19.301Z,2.35
2023-04-02T17:00:57.631Z,3.60
2023-04-02T17:03:51.039Z,2.38
2023-04-02T17:06:42.370Z,2.30
2023-04-02T17:09:23.569Z,1.38
2023-04-02T17:11:56.119Z,3.95
2023-04-02T17:14:54.614Z,1.05
2023-04-02T17:17:22.728Z,3.45
2023-04-02T17:19:53.379Z,2.77
2023-04-02T17:22:22.679Z,2.30
2023-04-02T17:24:56.045Z,3.05
2023-04-02T17:27:32.625Z,3.63
2023-04-02T17:30:05.405Z,1.33
2023-04-02T17:32:33.773Z,2.17
2023-04-02T17:35:25.104Z,1.10
2023-04-02T17:38:05.386Z,6.72
2023-04-02T17:41:02.803Z,0.93
2023-04-02T17:43:50.395Z,3.05
2023-04-02T17:46:43.322Z,2.63
2023-04-02T17:49:09.776Z,2.38
2023-04-02T17:51:58.268Z,1.45
2023-04-02T17:54:40.562Z,1.15
2023-04-02T17:57:21.865Z,1.48
2023-04-02T17:59:57.523Z,1.57
2023-04-02T18:02:38.398Z,5.60
2023-04-02T18:05:25.045Z,4.10
2023-04-02T18:08:03.667Z,3.50
2023-04-02T18:11:09.510Z,4.00
2023-04-02T18:13:42.055Z,1.80
2023-04-02T18:16:15.992Z,1.35
2023-04-02T18:19:03.416Z,5.40
2023-04-02T18:21:46.527Z,3.47
2023-04-02T18:24:28.086Z,1.45
2023-04-02T18:27:12.981Z,2.20
2023-04-02T18:29:48.965Z,3.05
2023-04-02T18:32:40.381Z,2.65
2023-04-02T18:35:10.715Z,5.82
2023-04-02T18:38:15.285Z,2.55
2023-04-02T18:41:01.700Z,3.00
2023-04-02T18:44:13.615Z,1.83
2023-04-02T18:47:02.444Z,2.13
2023-04-02T18:49:36.845Z,2.35
2023-04-02T18:52:16.048Z,4.03
2023-04-02T18:55:00.423Z,5.37
2023-04-02T18:57:33.950Z,1.08
2023-04-02T19:00:16.677Z,2.30
2023-04-02T19:03:17.087Z,1.63
2023-04-02T19:05:51.292Z,1.70
2023-04-02T19:08:28.793Z,1.10
2023-04-02T19:11:00.541Z,3.33
2023-04-02T19:13:27.135Z,2.78
2023-04-02T19:16:09.142Z,2.65
2023-04-02T19:18:45.852Z,1.48
2023-04-02T19:21:33.988Z,1.70
2023-04-02T19:24:15.672Z,1.30
2023-04-02T19:26:49.099Z,3.97
2023-04-02T19:29:33.540Z,0.50
2023-04-02T19:32:07.031Z,2.88
2023-04-02T19:34:53.158Z,5.17
2023-04-02T19:37:33.254Z,3.97
2023-04-02T19:40:13.011Z,1.73
2023-04-02T19:42:44.395Z,2.80
2023-04-02T19:45:32.867Z,1.15
2023-04-02T19:48:03.284Z,2.33
2023-04-02T19:50:29.997Z,3.85
2023-04-02T19:52:56.527Z,4.32
2023-04-02T19:55:23.106Z,2.65
2023-04-02T19:57:49.861Z,2.22
2023-04-02T20:00:17.611Z,3.60
2023-04-02T20:02:44.148Z,2.28
2023-04-02T20:05:11.347Z,2.08
2023-04-02T20:07:37.850Z,2.53
2023-04-02T20:10:04.734Z,2.58
2023-04-02T20:12:31.501Z,7.27
2023-04-02T20:14:58.034Z,8.77
2023-04-02T20:17:24.537Z,7.75
2023-04-02T20:19:57.124Z,6.82
2023-04-02T20:22:23.906Z,15.25
2023-04-02T20:24:51.203Z,2.57
2023-04-02T20:27:17.843Z,3.55
2023-04-02T20:29:44.314Z,11.45
2023-04-02T20:32:12.788Z,2.72
2023-04-02T20:34:39.350Z,1.92
2023-04-02T20:37:06.624Z,3.17
2023-04-02T20:39:33.039Z,2.85
2023-04-02T20:42:02.633Z,1.70
2023-04-02T20:44:29.348Z,2.25
2023-04-02T20:46:56.184Z,1.75
2023-04-02T20:49:22.899Z,1.23
2023-04-02T20:51:49.623Z,3.15
2023-04-02T20:54:16.085Z,1.95
2023-04-02T20:56:43.112Z,1.30
2023-04-02T20:59:09.543Z,1.67
2023-04-02T21:01:36.000Z,1.83
2023-04-02T21:04:03.989Z,1.55
2023-04-02T21:06:33.347Z,3.58
2023-04-02T21:09:02.243Z,1.65
2023-04-02T21:11:28.842Z,3.08
2023-04-02T21:13:55.471Z,1.60
2023-04-02T21:16:31.630Z,1.20
2023-04-02T21:19:01.582Z,2.92
2023-04-02T21:21:28.478Z,1.77
2023-04-02T21:23:57.905Z,2.70
2023-04-02T21:26:24.339Z,5.97
2023-04-02T21:28:50.782Z,3.90
2023-04-02T21:31:20.857Z,1.83
2023-04-02T21:33:50.345Z,0.70
2023-04-02T21:36:25.841Z,3.90
2023-04-02T21:38:54.853Z,1.43
2023-04-02T21:41:24.116Z,2.55
2023-04-02T21:43:50.917Z,0.55
2023-04-02T21:46:19.610Z,1.17
2023-04-02T21:48:46.620Z,1.13
2023-04-02T21:51:15.906Z,1.60
2023-04-02T21:53:43.205Z,3.33
2023-04-02T21:56:16.535Z,0.82
2023-04-02T21:58:44.210Z,3.67
2023-04-02T22:01:23.771Z,1.05
2023-04-02T22:03:53.961Z,2.17
2023-04-02T22:06:22.067Z,1.15
2023-04-02T22:08:54.334Z,2.90
2023-04-02T22:11:24.822Z,2.60
2023-04-02T22:13:51.296Z,1.35
2023-04-02T22:16:20.768Z,1.40
2023-04-02T22:18:48.467Z,4.30
2023-04-02T22:21:15.961Z,2.63
2023-04-02T22:23:43.016Z,3.35
2023-04-02T22:26:11.638Z,1.38
2023-04-02T22:28:38.489Z,0.93
2023-04-02T22:31:07.732Z,3.08
2023-04-02T22:33:35.679Z,1.75
2023-04-02T22:36:02.915Z,0.57
2023-04-02T22:38:29.400Z,0.63
2023-04-02T22:41:11.873Z,0.90
2023-04-02T22:43:39.254Z,0.70
2023-04-02T22:46:08.208Z,2.95
2023-04-02T22:48:36.549Z,4.05
2023-04-02T22:51:03.884Z,1.67
2023-04-02T22:53:31.650Z,2.87
2023-04-02T22:56:22.530Z,1.60
2023-04-02T22:58:49.491Z,2.00
2023-04-02T23:01:18.126Z,0.90
2023-04-02T23:03:44.905Z,3.40
2023-04-02T23:06:14.557Z,1.03
2023-04-02T23:08:41.501Z,1.08
2023-04-02T23:11:11.056Z,0.68
2023-04-02T23:13:38.780Z,0.93
2023-04-02T23:16:07.904Z,4.10
2023-04-02T23:18:35.781Z,1.03
2023-04-02T23:21:02.793Z,1.85
2023-04-02T23:23:31.475Z,3.88
2023-04-02T23:26:11.750Z,0.70
2023-04-02T23:28:39.461Z,0.50
2023-04-02T23:31:08.337Z,0.80
2023-04-02T23:33:35.582Z,0.70
2023-04-02T23:36:16.351Z,0.80
2023-04-02T23:38:42.937Z,0.70
2023-04-02T23:41:14.409Z,0.85
2023-04-02T23:43:41.030Z,3.07
2023-04-02T23:46:07.470Z,0.70
2023-04-02T23:48:34.123Z,2.20
2023-04-02T23:51:00.546Z,0.80
2023-04-02T23:53:26.968Z,1.17
2023-04-02T23:55:53.393Z,2.63
2023-04-02T23:58:19.820Z,0.60
